Weather at Sylvania Airport

Public forecast

Using degrees Fahrenheit for public forecast. Weather courtesy of forecast.io.

Closest aviation weather report (METAR) to Sylvania Airport

Closest report is Kenosha Regional Airport, 6.6 nm (12.2 km) SSE. Retrieved 2021/06/20 07:53 UTC (47 minutes ago):

KENW 200753Z AUTO 30004KT 10SM CLR 14/13 A2977 RMK AO2 SLP076 T01440128

Closest aviation forecast (TAF) to Sylvania Airport

Closest forecast is Kenosha Regional Airport, 6.6 nm (12.2 km) SSE. Retrieved 2021/06/20 06:22 UTC (2 hours ago):

TAF KENW 200520Z 2006/2106 VRB03KT P6SM SCT250 FM201500 15005KT P6SM BKN250 FM201800 14010KT P6SM VCTS BKN120CB TEMPO 2019/2023 4SM -TSRA BR BKN050CB FM202300 10010KT P6SM VCTS OVC050CB FM210300 24008KT 6SM SHRA BR VCTS OVC040CB